createdAt,value
2023-01-19T00:01:12.142Z,94.50
2023-01-19T00:03:40.045Z,94.30
2023-01-19T00:06:08.136Z,94.60
2023-01-19T00:08:36.480Z,94.60
2023-01-19T00:11:04.633Z,94.30
2023-01-19T00:13:34.976Z,94.10
2023-01-19T00:16:04.068Z,94.10
2023-01-19T00:18:31.837Z,93.90
2023-01-19T00:20:59.546Z,93.50
2023-01-19T00:23:27.343Z,93.30
2023-01-19T00:25:55.044Z,93.10
2023-01-19T00:28:22.758Z,92.70
2023-01-19T00:30:51.916Z,92.50
2023-01-19T00:33:20.956Z,92.60
2023-01-19T00:35:52.932Z,92.30
2023-01-19T00:38:20.595Z,92.20
2023-01-19T00:40:48.432Z,92.00
2023-01-19T00:43:16.155Z,91.70
2023-01-19T00:45:43.935Z,91.40
2023-01-19T00:48:11.676Z,91.30
2023-01-19T00:50:40.788Z,91.10
2023-01-19T00:53:08.489Z,91.20
2023-01-19T00:55:36.173Z,91.40
2023-01-19T00:58:07.104Z,91.60
2023-01-19T01:00:37.197Z,91.20
2023-01-19T01:03:06.173Z,91.10
2023-01-19T01:05:33.842Z,91.20
2023-01-19T01:08:02.882Z,91.30
2023-01-19T01:10:30.847Z,91.10
2023-01-19T01:12:59.360Z,91.20
2023-01-19T01:15:46.177Z,91.20
2023-01-19T01:18:16.276Z,90.50
2023-01-19T01:20:44.011Z,90.80
2023-01-19T01:23:13.368Z,91.00
2023-01-19T01:25:42.505Z,90.80
2023-01-19T01:28:11.352Z,90.80
2023-01-19T01:30:40.866Z,90.70
2023-01-19T01:33:09.018Z,90.70
2023-01-19T01:35:39.613Z,90.80
2023-01-19T01:38:07.539Z,90.70
2023-01-19T01:40:40.290Z,90.50
2023-01-19T01:43:12.210Z,90.20
2023-01-19T01:45:41.944Z,90.10
2023-01-19T01:48:13.756Z,90.20
2023-01-19T01:51:07.571Z,90.00
2023-01-19T01:53:38.466Z,90.30
2023-01-19T01:56:12.936Z,90.50
2023-01-19T01:58:41.730Z,90.50
2023-01-19T02:01:23.867Z,90.10
2023-01-19T02:03:52.107Z,90.40
2023-01-19T02:06:21.552Z,90.60
2023-01-19T02:09:08.670Z,90.70
2023-01-19T02:11:54.461Z,90.60
2023-01-19T02:14:22.771Z,90.10
2023-01-19T02:16:50.613Z,90.00
2023-01-19T02:19:24.564Z,89.80
2023-01-19T02:21:57.552Z,89.70
2023-01-19T02:24:27.391Z,89.70
2023-01-19T02:26:56.366Z,89.90
2023-01-19T02:29:27.221Z,90.10
2023-01-19T02:31:56.090Z,89.90
2023-01-19T02:34:23.912Z,89.50
2023-01-19T02:36:55.793Z,89.00
2023-01-19T02:39:29.878Z,89.00
2023-01-19T02:42:02.648Z,88.80
2023-01-19T02:44:31.409Z,88.90
2023-01-19T02:46:59.214Z,89.30
2023-01-19T02:49:29.676Z,90.30
2023-01-19T02:51:57.912Z,88.90
2023-01-19T02:54:40.060Z,90.10
2023-01-19T02:57:27.182Z,90.90
2023-01-19T03:00:07.841Z,91.30
2023-01-19T03:02:46.223Z,91.50
2023-01-19T03:05:27.318Z,91.80
2023-01-19T03:08:05.690Z,92.00
2023-01-19T03:10:43.405Z,91.90
2023-01-19T03:13:18.500Z,91.90
2023-01-19T03:15:50.274Z,92.20
2023-01-19T03:18:21.583Z,92.10
2023-01-19T03:20:53.433Z,92.10
2023-01-19T03:23:23.371Z,92.00
2023-01-19T03:25:54.607Z,91.90
2023-01-19T03:28:25.958Z,91.90
2023-01-19T03:30:59.611Z,92.10
2023-01-19T03:33:32.239Z,91.40
2023-01-19T03:36:05.382Z,92.00
2023-01-19T03:38:37.951Z,92.00
2023-01-19T03:41:12.362Z,91.30
2023-01-19T03:43:41.939Z,91.30
2023-01-19T03:46:11.534Z,91.20
2023-01-19T03:48:39.631Z,90.80
2023-01-19T03:51:09.237Z,90.80
2023-01-19T03:53:38.447Z,90.80
2023-01-19T03:56:09.740Z,90.50
2023-01-19T03:58:37.449Z,90.70
2023-01-19T04:01:05.195Z,90.80
2023-01-19T04:03:33.450Z,90.40
2023-01-19T04:06:01.264Z,90.30
2023-01-19T04:08:29.051Z,90.20
2023-01-19T04:10:59.003Z,90.40
2023-01-19T04:13:29.937Z,90.90
2023-01-19T04:16:01.114Z,91.00
2023-01-19T04:18:29.165Z,90.50
2023-01-19T04:20:56.990Z,90.90
2023-01-19T04:23:25.016Z,91.10
2023-01-19T04:25:58.247Z,91.00
2023-01-19T04:28:26.117Z,91.30
2023-01-19T04:30:55.271Z,91.40
2023-01-19T04:33:23.531Z,91.40
2023-01-19T04:35:54.397Z,91.80
2023-01-19T04:38:22.915Z,91.90
2023-01-19T04:40:52.527Z,91.90
2023-01-19T04:43:20.708Z,91.90
2023-01-19T04:45:48.991Z,92.00
2023-01-19T04:48:19.036Z,92.10
2023-01-19T04:50:47.209Z,92.10
2023-01-19T04:53:16.430Z,91.90
2023-01-19T04:55:44.116Z,92.00
2023-01-19T04:58:11.815Z,92.10
2023-01-19T05:00:39.542Z,92.10
2023-01-19T05:03:09.705Z,92.10
2023-01-19T05:05:38.744Z,92.20
2023-01-19T05:08:06.782Z,92.20
2023-01-19T05:10:34.496Z,92.20
2023-01-19T05:13:05.592Z,92.30
2023-01-19T05:15:35.761Z,92.30
2023-01-19T05:18:04.066Z,92.40
2023-01-19T05:20:31.786Z,92.40
2023-01-19T05:23:01.160Z,92.50
2023-01-19T05:25:29.021Z,92.50
2023-01-19T05:27:56.714Z,92.20
2023-01-19T05:30:24.796Z,92.00
2023-01-19T05:32:52.480Z,91.90
2023-01-19T05:35:31.302Z,91.70
2023-01-19T05:38:04.284Z,91.70
2023-01-19T05:40:32.014Z,91.80
2023-01-19T05:43:00.860Z,92.10
2023-01-19T05:45:31.354Z,92.20
2023-01-19T05:47:59.073Z,92.50
2023-01-19T05:50:27.012Z,92.70
2023-01-19T05:52:54.671Z,92.60
2023-01-19T05:55:24.148Z,92.60
2023-01-19T05:57:51.818Z,92.40
2023-01-19T06:00:20.920Z,92.10
2023-01-19T06:02:49.182Z,92.10
2023-01-19T06:05:17.167Z,92.10
2023-01-19T06:07:44.913Z,91.90
2023-01-19T06:10:13.119Z,91.50
2023-01-19T06:12:42.251Z,91.60
2023-01-19T06:15:10.406Z,91.60
2023-01-19T06:17:38.105Z,91.60
2023-01-19T06:20:06.930Z,91.30
2023-01-19T06:22:37.904Z,91.20
2023-01-19T06:25:06.016Z,91.10
2023-01-19T06:27:33.675Z,90.90
2023-01-19T06:30:04.779Z,90.70
2023-01-19T06:32:32.977Z,90.80
2023-01-19T06:35:00.723Z,90.20
2023-01-19T06:37:30.446Z,90.30
2023-01-19T06:39:58.720Z,90.30
2023-01-19T06:42:26.496Z,90.00
2023-01-19T06:44:54.211Z,89.80
2023-01-19T06:47:23.183Z,90.10
2023-01-19T06:49:50.974Z,90.40
2023-01-19T06:52:19.875Z,90.20
2023-01-19T06:54:47.709Z,90.40
2023-01-19T06:57:18.720Z,90.80
2023-01-19T06:59:46.554Z,90.60
2023-01-19T07:02:26.947Z,90.90
2023-01-19T07:04:57.506Z,91.00
2023-01-19T07:07:25.775Z,90.90
2023-01-19T07:09:54.340Z,90.80
2023-01-19T07:12:22.340Z,90.70
2023-01-19T07:14:50.305Z,90.30
2023-01-19T07:17:18.201Z,90.10
2023-01-19T07:19:46.481Z,90.20
2023-01-19T07:22:15.504Z,89.50
2023-01-19T07:24:44.178Z,89.10
2023-01-19T07:27:12.329Z,88.80
2023-01-19T07:29:40.047Z,89.10
2023-01-19T07:32:07.982Z,88.90
2023-01-19T07:34:36.344Z,88.30
2023-01-19T07:37:04.621Z,88.30
2023-01-19T07:39:38.821Z,88.30
2023-01-19T07:42:07.659Z,88.20
2023-01-19T07:44:37.528Z,88.30
2023-01-19T07:47:07.459Z,88.00
2023-01-19T07:49:36.271Z,88.50
2023-01-19T07:52:04.165Z,87.90
2023-01-19T07:54:33.191Z,87.50
2023-01-19T07:57:02.748Z,88.00
2023-01-19T07:59:36.692Z,87.70
2023-01-19T08:02:04.530Z,87.20
2023-01-19T08:04:32.375Z,88.00
2023-01-19T08:07:00.107Z,87.90
2023-01-19T08:09:27.819Z,87.20
2023-01-19T08:11:57.040Z,87.10
2023-01-19T08:14:24.800Z,87.20
2023-01-19T08:16:52.501Z,87.30
2023-01-19T08:19:20.378Z,87.20
2023-01-19T08:21:48.096Z,87.00
2023-01-19T08:24:21.251Z,87.00
2023-01-19T08:26:49.469Z,86.90
2023-01-19T08:29:18.478Z,87.40
2023-01-19T08:31:46.562Z,88.20
2023-01-19T08:34:14.360Z,86.80
2023-01-19T08:36:42.043Z,87.50
2023-01-19T08:39:12.060Z,87.40
2023-01-19T08:41:39.773Z,86.60
2023-01-19T08:44:07.535Z,85.50
2023-01-19T08:46:36.664Z,85.40
2023-01-19T08:49:04.404Z,85.20
2023-01-19T08:51:32.852Z,85.40
2023-01-19T08:54:00.584Z,85.10
2023-01-19T08:56:28.520Z,84.20
2023-01-19T08:59:08.233Z,83.80
2023-01-19T09:01:38.999Z,84.20
2023-01-19T09:04:07.104Z,84.00
2023-01-19T09:06:34.884Z,84.20
2023-01-19T09:09:02.874Z,83.30
2023-01-19T09:11:30.744Z,84.00
2023-01-19T09:13:58.501Z,84.20
2023-01-19T09:16:26.989Z,84.00
2023-01-19T09:18:56.110Z,84.40
2023-01-19T09:21:23.867Z,83.90
2023-01-19T09:23:51.561Z,84.30
2023-01-19T09:26:19.257Z,84.10
2023-01-19T09:28:46.931Z,84.50
2023-01-19T09:31:15.428Z,83.60
2023-01-19T09:33:43.271Z,84.00
2023-01-19T09:36:12.284Z,83.70
2023-01-19T09:38:39.963Z,83.50
2023-01-19T09:41:19.828Z,82.00
2023-01-19T09:43:54.293Z,82.40
2023-01-19T09:46:31.118Z,81.30
2023-01-19T09:49:01.392Z,82.00
2023-01-19T09:51:34.719Z,81.40
2023-01-19T09:54:10.184Z,81.40
2023-01-19T09:56:38.611Z,81.70
2023-01-19T09:59:19.647Z,82.00
2023-01-19T10:02:06.789Z,82.20
2023-01-19T10:04:40.441Z,82.30
2023-01-19T10:07:16.886Z,81.20
2023-01-19T10:09:56.232Z,82.00
2023-01-19T10:12:36.787Z,81.50
2023-01-19T10:15:15.549Z,81.80
2023-01-19T10:17:50.315Z,81.30
2023-01-19T10:20:26.005Z,81.80
2023-01-19T10:22:57.737Z,81.50
2023-01-19T10:25:25.955Z,81.80
2023-01-19T10:27:53.703Z,81.20
2023-01-19T10:30:25.459Z,81.90
2023-01-19T10:32:53.435Z,81.90
2023-01-19T10:35:24.503Z,81.60
2023-01-19T10:37:54.530Z,81.20
2023-01-19T10:40:30.749Z,81.20
2023-01-19T10:42:59.489Z,81.10
2023-01-19T10:45:32.550Z,80.40
2023-01-19T10:48:07.081Z,79.30
2023-01-19T10:50:37.399Z,79.90
2023-01-19T10:53:06.386Z,79.60
2023-01-19T10:55:38.240Z,78.30
2023-01-19T10:58:07.140Z,79.50
2023-01-19T11:00:38.292Z,79.40
2023-01-19T11:03:22.847Z,79.50
2023-01-19T11:05:51.155Z,79.80
2023-01-19T11:08:24.677Z,80.60
2023-01-19T11:11:02.326Z,80.50
2023-01-19T11:13:30.289Z,80.20
2023-01-19T11:16:04.439Z,80.90
2023-01-19T11:18:35.611Z,80.80
2023-01-19T11:21:08.754Z,80.60
2023-01-19T11:23:42.820Z,81.30
2023-01-19T11:26:16.805Z,80.20
2023-01-19T11:28:51.165Z,80.90
2023-01-19T11:31:20.880Z,80.20
2023-01-19T11:33:52.535Z,81.20
2023-01-19T11:36:22.897Z,81.50
2023-01-19T11:38:52.223Z,81.60
2023-01-19T11:41:27.803Z,81.70
2023-01-19T11:43:58.625Z,82.00
2023-01-19T11:46:33.744Z,82.70
2023-01-19T11:49:05.568Z,83.00
2023-01-19T11:51:41.179Z,83.50
2023-01-19T11:54:18.674Z,83.20
2023-01-19T11:56:49.246Z,83.70
2023-01-19T11:59:17.052Z,84.30
2023-01-19T12:01:50.252Z,84.30
2023-01-19T12:04:29.659Z,84.60
2023-01-19T12:06:59.346Z,83.30
2023-01-19T12:09:31.825Z,83.40
2023-01-19T12:12:04.092Z,83.60
2023-01-19T12:14:40.175Z,83.40
2023-01-19T12:17:14.923Z,82.60
2023-01-19T12:19:50.442Z,83.00
2023-01-19T12:22:22.108Z,82.70
2023-01-19T12:24:55.943Z,83.10
2023-01-19T12:27:39.999Z,82.90
2023-01-19T12:30:18.306Z,82.60
2023-01-19T12:32:48.151Z,82.30
2023-01-19T12:35:45.627Z,82.70
2023-01-19T12:38:33.462Z,82.80
2023-01-19T12:41:26.362Z,83.10
2023-01-19T12:44:18.995Z,83.30
2023-01-19T12:46:49.222Z,83.20
2023-01-19T12:49:25.045Z,83.10
2023-01-19T12:51:56.039Z,83.40
2023-01-19T12:54:31.433Z,84.00
2023-01-19T12:57:02.825Z,84.30
2023-01-19T12:59:34.510Z,84.20
2023-01-19T13:02:33.547Z,84.60
2023-01-19T13:05:18.737Z,84.30
2023-01-19T13:08:16.580Z,84.40
2023-01-19T13:11:14.281Z,85.00
2023-01-19T13:13:44.399Z,85.00
2023-01-19T13:16:44.288Z,84.90
2023-01-19T13:19:17.922Z,84.50
2023-01-19T13:21:47.718Z,84.40
2023-01-19T13:24:17.496Z,84.80
2023-01-19T13:26:55.377Z,84.50
2023-01-19T13:29:29.843Z,84.10
2023-01-19T13:32:02.544Z,83.60
2023-01-19T13:34:37.200Z,84.10
2023-01-19T13:37:06.071Z,84.10
2023-01-19T13:39:38.031Z,84.30
2023-01-19T13:42:08.988Z,84.30
2023-01-19T13:44:41.555Z,82.70
2023-01-19T13:47:13.240Z,83.90
2023-01-19T13:49:45.764Z,84.20
2023-01-19T13:52:16.785Z,84.50
2023-01-19T13:54:49.873Z,84.70
2023-01-19T13:57:26.577Z,84.90
2023-01-19T14:00:16.855Z,85.10
2023-01-19T14:02:55.685Z,84.80
2023-01-19T14:05:29.036Z,83.70
2023-01-19T14:08:06.983Z,83.90
2023-01-19T14:10:36.073Z,84.90
2023-01-19T14:13:04.959Z,84.10
2023-01-19T14:15:34.798Z,84.30
2023-01-19T14:18:12.438Z,84.10
2023-01-19T14:20:54.004Z,83.80
2023-01-19T14:23:38.187Z,83.90
2023-01-19T14:26:06.668Z,82.90
2023-01-19T14:28:39.234Z,82.90
2023-01-19T14:31:21.402Z,82.60
2023-01-19T14:33:50.483Z,82.60
2023-01-19T14:36:36.107Z,82.90
2023-01-19T14:39:04.720Z,82.40
2023-01-19T14:41:39.577Z,83.10
2023-01-19T14:44:13.150Z,83.40
2023-01-19T14:46:47.725Z,82.60
2023-01-19T14:49:27.284Z,83.60
2023-01-19T14:51:56.853Z,83.30
2023-01-19T14:54:31.547Z,83.70
2023-01-19T14:56:59.297Z,83.80
2023-01-19T14:59:27.026Z,83.30
2023-01-19T15:01:54.830Z,83.70
2023-01-19T15:04:23.102Z,84.00
2023-01-19T15:06:50.900Z,82.80
2023-01-19T15:09:20.019Z,83.60
2023-01-19T15:11:50.383Z,84.10
2023-01-19T15:14:19.652Z,84.10
2023-01-19T15:16:47.860Z,84.50
2023-01-19T15:19:17.495Z,84.70
2023-01-19T15:21:47.028Z,85.10
2023-01-19T15:24:17.936Z,85.70
2023-01-19T15:26:47.309Z,86.30
2023-01-19T15:29:20.914Z,86.20
2023-01-19T15:31:48.830Z,86.10
2023-01-19T15:34:16.531Z,86.00
2023-01-19T15:36:45.953Z,86.50
2023-01-19T15:39:13.701Z,86.80
2023-01-19T15:41:41.745Z,86.50
2023-01-19T15:44:11.755Z,86.20
2023-01-19T15:46:39.741Z,86.30
2023-01-19T15:49:07.645Z,86.40
2023-01-19T15:51:35.418Z,86.40
2023-01-19T15:54:03.164Z,86.60
2023-01-19T15:56:32.152Z,86.60
2023-01-19T15:59:00.051Z,86.60
2023-01-19T16:01:31.963Z,86.80
2023-01-19T16:04:01.405Z,86.90
2023-01-19T16:06:30.607Z,87.00
2023-01-19T16:09:03.452Z,86.90
2023-01-19T16:11:33.406Z,86.70
2023-01-19T16:14:01.274Z,86.60
2023-01-19T16:16:30.484Z,86.70
2023-01-19T16:18:58.920Z,86.90
2023-01-19T16:21:26.684Z,87.30
2023-01-19T16:23:55.194Z,87.60
2023-01-19T16:26:28.212Z,88.00
2023-01-19T16:29:00.971Z,88.60
2023-01-19T16:31:31.764Z,89.00
2023-01-19T16:33:59.502Z,89.10
2023-01-19T16:36:31.694Z,89.20
2023-01-19T16:39:00.641Z,89.70
2023-01-19T16:41:28.664Z,89.70
2023-01-19T16:43:58.403Z,89.80
2023-01-19T16:46:28.068Z,89.80
2023-01-19T16:49:00.456Z,89.90
2023-01-19T16:51:28.549Z,90.00
2023-01-19T16:53:56.491Z,90.20
2023-01-19T16:56:24.244Z,90.10
2023-01-19T16:58:54.778Z,90.20
2023-01-19T17:01:23.314Z,90.60
2023-01-19T17:03:51.383Z,90.80
2023-01-19T17:06:25.260Z,90.90
2023-01-19T17:08:54.327Z,90.80
2023-01-19T17:11:24.584Z,90.70
2023-01-19T17:13:56.376Z,90.80
2023-01-19T17:16:25.371Z,90.90
2023-01-19T17:18:56.945Z,91.00
2023-01-19T17:21:26.605Z,91.10
2023-01-19T17:23:55.773Z,91.00
2023-01-19T17:26:25.138Z,91.10
2023-01-19T17:28:53.144Z,91.40
2023-01-19T17:31:26.155Z,91.70
2023-01-19T17:33:53.941Z,91.60
2023-01-19T17:36:25.080Z,91.70
2023-01-19T17:38:56.104Z,92.00
2023-01-19T17:41:26.244Z,92.00
2023-01-19T17:43:54.491Z,92.40
2023-01-19T17:46:23.684Z,92.40
2023-01-19T17:48:54.330Z,92.40
2023-01-19T17:51:24.149Z,92.70
2023-01-19T17:53:56.298Z,92.90
2023-01-19T17:56:30.499Z,92.90
2023-01-19T17:58:59.304Z,92.90
2023-01-19T18:01:31.714Z,92.90
2023-01-19T18:04:00.840Z,93.20
2023-01-19T18:06:28.528Z,93.30
2023-01-19T18:08:58.365Z,93.30
2023-01-19T18:11:27.190Z,93.30
2023-01-19T18:13:55.098Z,93.60
2023-01-19T18:16:25.345Z,93.80
2023-01-19T18:18:54.351Z,93.90
2023-01-19T18:21:23.583Z,94.00
2023-01-19T18:24:02.315Z,93.90
2023-01-19T18:26:31.387Z,93.80
2023-01-19T18:28:59.473Z,93.70
2023-01-19T18:31:30.721Z,93.70
2023-01-19T18:33:58.486Z,93.80
2023-01-19T18:36:26.405Z,94.00
2023-01-19T18:38:54.292Z,94.30
2023-01-19T18:41:23.314Z,94.30
2023-01-19T18:43:51.920Z,94.40
2023-01-19T18:46:21.625Z,94.40
2023-01-19T18:48:49.337Z,94.50
2023-01-19T18:51:18.053Z,94.50
2023-01-19T18:53:46.347Z,94.40
2023-01-19T18:56:15.628Z,94.50
2023-01-19T18:58:45.557Z,94.60
2023-01-19T19:01:23.628Z,94.50
2023-01-19T19:03:52.021Z,94.40
2023-01-19T19:06:20.797Z,94.70
2023-01-19T19:08:50.033Z,94.60
2023-01-19T19:11:18.361Z,94.60
2023-01-19T19:13:51.631Z,94.90
2023-01-19T19:16:19.511Z,94.80
2023-01-19T19:18:49.679Z,94.80
2023-01-19T19:21:21.712Z,94.80
2023-01-19T19:23:51.911Z,94.90
2023-01-19T19:26:20.087Z,94.90
2023-01-19T19:28:49.304Z,94.80
2023-01-19T19:31:20.252Z,94.70
2023-01-19T19:33:50.576Z,94.70
2023-01-19T19:36:18.606Z,94.80
2023-01-19T19:38:47.451Z,94.80
2023-01-19T19:41:17.350Z,95.00
2023-01-19T19:43:45.249Z,95.00
2023-01-19T19:46:16.362Z,95.00
2023-01-19T19:48:44.086Z,94.90
2023-01-19T19:51:18.555Z,94.70
2023-01-19T19:53:49.560Z,94.80
2023-01-19T19:56:20.901Z,94.80
2023-01-19T19:58:48.960Z,94.70
2023-01-19T20:01:20.380Z,94.70
2023-01-19T20:03:49.760Z,94.70
2023-01-19T20:06:20.680Z,94.60
2023-01-19T20:08:50.435Z,94.60
2023-01-19T20:11:20.443Z,94.60
2023-01-19T20:13:48.557Z,94.60
2023-01-19T20:16:19.881Z,94.60
2023-01-19T20:18:51.304Z,94.60
2023-01-19T20:21:21.170Z,94.70
2023-01-19T20:23:50.712Z,94.70
2023-01-19T20:26:20.588Z,94.70
2023-01-19T20:28:48.805Z,94.60
2023-01-19T20:31:20.318Z,94.50
2023-01-19T20:33:49.618Z,94.40
2023-01-19T20:36:18.323Z,94.30
2023-01-19T20:38:46.671Z,94.20
2023-01-19T20:41:14.628Z,94.20
2023-01-19T20:43:42.414Z,94.10
2023-01-19T20:46:10.301Z,94.10
2023-01-19T20:48:39.399Z,94.00
2023-01-19T20:51:13.198Z,94.10
2023-01-19T20:53:42.316Z,94.10
2023-01-19T20:56:13.672Z,94.20
2023-01-19T20:58:42.475Z,94.30
2023-01-19T21:01:11.898Z,94.30
2023-01-19T21:03:41.115Z,94.30
2023-01-19T21:06:09.387Z,94.30
2023-01-19T21:08:37.524Z,94.20
2023-01-19T21:11:05.485Z,94.10
2023-01-19T21:13:33.648Z,94.00
2023-01-19T21:16:01.951Z,94.00
2023-01-19T21:18:30.101Z,94.00
2023-01-19T21:20:59.395Z,93.90
2023-01-19T21:23:27.411Z,93.90
2023-01-19T21:25:56.791Z,93.50
2023-01-19T21:28:24.586Z,93.70
2023-01-19T21:30:53.610Z,93.50
2023-01-19T21:33:22.245Z,93.70
2023-01-19T21:35:52.183Z,93.70
2023-01-19T21:38:22.205Z,93.50
2023-01-19T21:40:50.176Z,93.70
2023-01-19T21:43:19.836Z,93.80
2023-01-19T21:45:48.564Z,93.80
2023-01-19T21:48:16.974Z,93.70
2023-01-19T21:50:44.857Z,93.70
2023-01-19T21:53:12.855Z,93.70
2023-01-19T21:55:45.767Z,93.80
2023-01-19T21:58:13.465Z,93.80
2023-01-19T22:00:41.296Z,93.90
2023-01-19T22:03:09.071Z,94.00
2023-01-19T22:05:39.967Z,94.10
2023-01-19T22:08:07.693Z,93.90
2023-01-19T22:10:37.038Z,94.00
2023-01-19T22:13:06.557Z,94.00
2023-01-19T22:15:34.405Z,94.10
2023-01-19T22:18:02.139Z,94.10
2023-01-19T22:20:29.864Z,94.00
2023-01-19T22:22:57.946Z,93.60
2023-01-19T22:25:27.665Z,93.70
2023-01-19T22:27:55.553Z,93.60
2023-01-19T22:30:25.975Z,93.50
2023-01-19T22:32:54.089Z,93.50
2023-01-19T22:35:22.086Z,93.50
2023-01-19T22:37:49.750Z,93.50
2023-01-19T22:40:18.039Z,93.50
2023-01-19T22:42:47.320Z,93.50
2023-01-19T22:45:15.920Z,93.40
2023-01-19T22:47:45.189Z,93.40
2023-01-19T22:50:15.441Z,93.50
2023-01-19T22:52:43.270Z,93.50
2023-01-19T22:55:13.678Z,93.40
2023-01-19T22:57:41.525Z,93.50
2023-01-19T23:00:10.372Z,93.50
2023-01-19T23:02:39.408Z,93.50
2023-01-19T23:05:08.883Z,93.50
2023-01-19T23:07:36.804Z,93.40
2023-01-19T23:10:23.105Z,93.40
2023-01-19T23:12:50.811Z,93.30
2023-01-19T23:15:18.538Z,93.70
2023-01-19T23:17:48.841Z,93.70
2023-01-19T23:20:18.072Z,94.00
2023-01-19T23:22:45.871Z,94.10
2023-01-19T23:25:15.145Z,94.20
2023-01-19T23:27:42.987Z,94.20
2023-01-19T23:30:11.696Z,94.30
2023-01-19T23:32:39.408Z,94.40
2023-01-19T23:35:10.552Z,94.50
2023-01-19T23:37:39.661Z,94.50
2023-01-19T23:40:09.681Z,94.40
2023-01-19T23:42:37.386Z,94.50
2023-01-19T23:45:05.767Z,94.60
2023-01-19T23:47:35.411Z,94.60
2023-01-19T23:50:03.921Z,94.70
2023-01-19T23:52:32.219Z,94.70
2023-01-19T23:55:01.197Z,94.70
2023-01-19T23:57:28.895Z,94.70
2023-01-19T23:59:56.574Z,94.60
